Quartz Hill, California
Current Conditions -  °F | °C
As of 8:53 AM on Sunday 23 Nov 2014 (Local Time) from KPMD Reporting Station
Clear Clear  
Wind Chill: 56°   Ceiling: Unl
Heat Index: 56°   Visibility: 10mi
Dew Point: 28°   Wind: 20mph
Humidity: 34%   Direction: 80°E
Pressure: 30.28"   Gusts: NA
Location:  34.5959°N, 118.235°W
Report Text: KPMD 231653Z 08017KT 10SM CLR 13/M02 A3028 RMK AO2 SLP244 T01331022
Loading
Personal Weather Stations






























Interactive Weather Map New forecast layout! Learn more

10-Day Weather Forecast

Advertisements
Track Severe Weather on mobile